Time;durP1;ratioP1;P1;durP2;ratioP2;P2;SDS_P1;SDS_P2;PMS_P1;PMS_P2;Temp;Humidity;BMP_temperature;BMP_pressure;BME280_temperature;BME280_humidity;BME280_pressure;Samples;Min_cycle;Max_cycle;Signal;HPM_P1;HPM_P2
2023/12/15 00:00:49;;;;;;;21.65;10.50;;;;;;;3.93;100.00;101749.44;5204891;28;20452;-72
2023/12/15 00:03:19;;;;;;;23.30;11.50;;;;;;;3.88;100.00;101753.66;5205090;28;20038;-71
2023/12/15 00:05:49;;;;;;;21.30;9.98;;;;;;;3.93;100.00;101765.78;5205839;28;20025;-71
2023/12/15 00:08:20;;;;;;;23.60;11.63;;;;;;;3.90;100.00;101760.59;5188323;28;20068;-72
2023/12/15 00:10:50;;;;;;;21.88;11.30;;;;;;;3.92;100.00;101764.06;5201473;28;20037;-72
2023/12/15 00:13:20;;;;;;;21.40;10.55;;;;;;;3.93;100.00;101765.78;5199847;28;20072;-72
2023/12/15 00:15:50;;;;;;;29.52;13.02;;;;;;;3.91;100.00;101767.50;5207152;28;20506;-72
2023/12/15 00:18:21;;;;;;;26.77;11.65;;;;;;;4.01;100.00;101766.75;5204528;28;20044;-72
2023/12/15 00:20:51;;;;;;;28.20;12.63;;;;;;;4.00;100.00;101772.78;5201368;28;20630;-72
2023/12/15 00:23:21;;;;;;;28.05;12.32;;;;;;;4.03;100.00;101777.97;5203611;28;20363;-72
2023/12/15 00:25:52;;;;;;;26.52;11.52;;;;;;;4.15;100.00;101777.22;5202240;28;20038;-72
2023/12/15 00:28:22;;;;;;;28.83;13.18;;;;;;;4.07;100.00;101784.91;5200306;28;20029;-72
2023/12/15 00:30:52;;;;;;;27.27;12.20;;;;;;;4.12;100.00;101784.94;5207900;28;20064;-72
2023/12/15 00:33:22;;;;;;;26.65;11.90;;;;;;;4.10;100.00;101784.06;5208685;28;20134;-72
2023/12/15 00:35:53;;;;;;;25.60;12.38;;;;;;;4.10;100.00;101782.34;5210365;28;20029;-72
2023/12/15 00:38:23;;;;;;;29.08;12.88;;;;;;;4.00;100.00;101783.13;5208494;28;20037;-72
2023/12/15 00:40:53;;;;;;;23.75;11.50;;;;;;;4.06;100.00;101788.34;5211958;28;20601;-72
2023/12/15 00:43:24;;;;;;;22.25;10.85;;;;;;;4.10;100.00;101784.06;5206545;28;20030;-72
2023/12/15 00:45:54;;;;;;;23.42;11.40;;;;;;;4.06;100.00;101788.34;5203658;28;20041;-72
2023/12/15 00:48:24;;;;;;;20.40;10.32;;;;;;;4.10;100.00;101786.66;5208016;28;20064;-70
2023/12/15 00:50:55;;;;;;;23.02;10.93;;;;;;;4.17;100.00;101785.84;5211622;28;20048;-72
2023/12/15 00:53:25;;;;;;;24.73;11.43;;;;;;;4.18;100.00;101790.16;5208544;28;20108;-72
2023/12/15 00:55:55;;;;;;;29.63;13.10;;;;;;;4.20;100.00;101794.53;5208891;28;20040;-72
2023/12/15 00:58:26;;;;;;;23.58;11.45;;;;;;;4.22;100.00;101800.56;5207288;28;20112;-72
2023/12/15 01:00:56;;;;;;;28.08;12.88;;;;;;;4.21;100.00;101800.53;5208167;28;20080;-72
2023/12/15 01:03:29;;;;;;;27.17;13.20;;;;;;;4.23;100.00;101807.47;5205638;28;20036;-72
2023/12/15 01:05:59;;;;;;;27.48;12.73;;;;;;;4.25;100.00;101810.06;5208900;28;20316;-70
2023/12/15 01:08:30;;;;;;;27.10;13.10;;;;;;;4.21;100.00;101808.31;5228931;22;20060;-78
2023/12/15 01:11:00;;;;;;;28.73;12.77;;;;;;;4.22;100.00;101816.09;5181404;28;20045;-78
2023/12/15 01:13:30;;;;;;;27.23;13.32;;;;;;;4.22;100.00;101810.91;5185201;28;20025;-79
2023/12/15 01:16:04;;;;;;;25.08;12.40;;;;;;;4.20;100.00;101820.41;5187912;28;20438;-78
2023/12/15 01:18:35;;;;;;;26.30;12.25;;;;;;;4.25;100.00;101826.47;5188294;28;20021;-79
2023/12/15 01:21:05;;;;;;;29.40;12.88;;;;;;;4.23;100.00;101827.28;5191850;28;20037;-79
2023/12/15 01:23:36;;;;;;;30.77;12.73;;;;;;;4.23;100.00;101832.47;5193158;28;20195;-79
2023/12/15 01:26:07;;;;;;;24.75;12.00;;;;;;;4.17;100.00;101827.25;5170509;28;20030;-79
2023/12/15 01:28:37;;;;;;;24.35;11.48;;;;;;;4.18;100.00;101827.28;5194568;28;20036;-79
2023/12/15 01:31:08;;;;;;;28.35;12.48;;;;;;;4.13;100.00;101833.25;5188556;28;20057;-79
2023/12/15 01:33:38;;;;;;;25.27;12.13;;;;;;;4.10;100.00;101841.84;5192281;28;20453;-79
2023/12/15 01:36:08;;;;;;;24.85;11.43;;;;;;;4.08;100.00;101843.53;5185806;28;20030;-79
2023/12/15 01:38:39;;;;;;;23.90;11.75;;;;;;;4.11;100.00;101840.97;5191789;28;20029;-79
2023/12/15 01:41:10;;;;;;;26.42;12.48;;;;;;;4.03;100.00;101849.50;5189224;28;20037;-79
2023/12/15 01:43:41;;;;;;;27.05;12.63;;;;;;;3.99;100.00;101853.75;5186883;28;20534;-79
2023/12/15 01:46:11;;;;;;;26.92;11.93;;;;;;;3.85;100.00;101854.47;5166910;28;20136;-79
2023/12/15 01:48:42;;;;;;;29.05;12.95;;;;;;;3.85;100.00;101854.47;5180657;28;20447;-79
2023/12/15 01:51:14;;;;;;;25.73;11.43;;;;;;;3.90;100.00;101858.84;5184410;28;20084;-79
2023/12/15 01:53:44;;;;;;;24.10;11.80;;;;;;;3.98;100.00;101856.34;5191694;28;20026;-77
2023/12/15 01:56:14;;;;;;;23.75;11.80;;;;;;;4.03;100.00;101858.16;5187715;28;20116;-79
2023/12/15 01:58:45;;;;;;;27.30;12.88;;;;;;;4.01;100.00;101861.56;5191807;28;20041;-78
2023/12/15 02:01:15;;;;;;;25.42;12.43;;;;;;;4.00;100.00;101865.88;5184911;28;20034;-79
2023/12/15 02:03:45;;;;;;;27.55;12.48;;;;;;;4.05;100.00;101876.25;5190354;28;20053;-77
2023/12/15 02:06:16;;;;;;;28.80;13.70;;;;;;;4.06;100.00;101870.22;5187464;28;20036;-79
2023/12/15 02:08:47;;;;;;;27.25;12.20;;;;;;;3.99;100.00;101877.03;5188674;28;20107;-77
2023/12/15 02:11:18;;;;;;;28.00;13.38;;;;;;;3.99;100.00;101864.09;5188037;28;20323;-79
2023/12/15 02:13:48;;;;;;;30.92;13.30;;;;;;;3.89;100.00;101871.75;5188882;28;20013;-78
2023/12/15 02:16:18;;;;;;;29.60;13.73;;;;;;;3.86;100.00;101862.25;5189275;28;20029;-79
2023/12/15 02:18:49;;;;;;;27.73;12.98;;;;;;;3.88;100.00;101870.91;5191045;28;20021;-78
2023/12/15 02:21:19;;;;;;;32.35;13.65;;;;;;;3.79;100.00;101875.94;5187931;28;20037;-79
2023/12/15 02:23:49;;;;;;;31.00;14.23;;;;;;;3.81;100.00;101878.56;5190929;28;20548;-75
2023/12/15 02:26:19;;;;;;;31.05;14.40;;;;;;;3.88;100.00;101875.19;5186846;28;20044;-79
2023/12/15 02:28:50;;;;;;;36.17;16.52;;;;;;;3.82;100.00;101882.88;5189809;28;20387;-79
2023/12/15 02:31:21;;;;;;;35.08;15.05;;;;;;;3.83;100.00;101877.75;5174595;28;20018;-79
2023/12/15 02:33:53;;;;;;;34.28;15.32;;;;;;;3.87;100.00;101879.50;5170415;28;20048;-77
2023/12/15 02:36:23;;;;;;;34.05;15.93;;;;;;;3.91;100.00;101872.63;5191930;28;20021;-79
2023/12/15 02:38:54;;;;;;;37.00;16.33;;;;;;;3.98;100.00;101872.72;5171172;28;20292;-79
2023/12/15 02:41:24;;;;;;;30.45;14.80;;;;;;;4.01;100.00;101879.66;5172416;28;20029;-75
2023/12/15 02:43:54;;;;;;;33.38;15.68;;;;;;;4.02;100.00;101882.28;5193765;28;20052;-78
2023/12/15 02:46:25;;;;;;;34.92;16.05;;;;;;;4.04;100.00;101885.75;5182145;28;20026;-76
2023/12/15 02:48:55;;;;;;;35.25;15.73;;;;;;;4.10;100.00;101887.53;5171993;28;20379;-79
2023/12/15 02:51:27;;;;;;;34.72;15.80;;;;;;;4.12;100.00;101891.00;5189882;28;20121;-78
2023/12/15 02:54:00;;;;;;;33.38;15.63;;;;;;;4.10;100.00;101890.97;5171648;28;20097;-79
2023/12/15 02:56:31;;;;;;;32.63;15.63;;;;;;;4.11;100.00;101894.44;5189456;28;20036;-79
2023/12/15 02:59:03;;;;;;;38.20;16.95;;;;;;;4.15;100.00;101891.03;5188141;28;20021;-79
2023/12/15 03:01:33;;;;;;;32.85;15.65;;;;;;;4.16;100.00;101892.78;5168476;28;20060;-79
2023/12/15 03:04:03;;;;;;;34.72;15.25;;;;;;;4.21;100.00;101881.63;5184283;28;20026;-79
2023/12/15 03:06:34;;;;;;;38.67;17.05;;;;;;;4.19;100.00;101882.44;5188208;28;20033;-79
2023/12/15 03:09:04;;;;;;;35.22;16.45;;;;;;;4.28;100.00;101878.25;5189583;28;20034;-79
2023/12/15 03:11:34;;;;;;;37.60;16.67;;;;;;;4.20;100.00;101889.34;5191336;28;20498;-79
2023/12/15 03:14:05;;;;;;;33.58;16.23;;;;;;;4.27;100.00;101892.03;5168055;28;20391;-79
2023/12/15 03:16:35;;;;;;;34.83;15.73;;;;;;;4.28;100.00;101893.75;5190687;28;20419;-76
2023/12/15 03:19:05;;;;;;;31.55;14.55;;;;;;;4.43;100.00;101883.56;5190455;28;20044;-77
2023/12/15 03:21:35;;;;;;;37.45;16.13;;;;;;;4.29;100.00;101887.75;5182592;28;20607;-79
2023/12/15 03:24:06;;;;;;;31.60;15.35;;;;;;;4.25;100.00;101893.75;5184051;28;20033;-79
2023/12/15 03:26:36;;;;;;;35.05;16.17;;;;;;;4.25;100.00;101892.84;5185228;28;20041;-79
2023/12/15 03:29:06;;;;;;;32.10;15.82;;;;;;;4.25;100.00;101888.56;5169529;28;20496;-79
2023/12/15 03:31:37;;;;;;;35.58;15.85;;;;;;;4.21;100.00;101891.97;5189599;28;20110;-79
2023/12/15 03:34:08;;;;;;;33.70;15.48;;;;;;;4.27;100.00;101897.22;5173100;28;20081;-79
2023/12/15 03:36:38;;;;;;;34.05;16.35;;;;;;;4.35;100.00;101910.22;5183258;28;20033;-79
2023/12/15 03:39:09;;;;;;;30.15;14.68;;;;;;;4.34;100.00;101900.72;5187552;28;20060;-79
2023/12/15 03:41:39;;;;;;;32.38;14.65;;;;;;;4.45;100.00;101907.75;5169871;28;20040;-79
2023/12/15 03:44:10;;;;;;;34.47;15.55;;;;;;;4.48;100.00;101907.78;5191158;28;20310;-79
2023/12/15 03:46:40;;;;;;;30.25;14.20;;;;;;;4.42;100.00;101907.72;5184820;28;20040;-79
2023/12/15 03:49:10;;;;;;;32.60;15.38;;;;;;;4.37;100.00;101911.09;5170092;28;20453;-79
2023/12/15 03:51:41;;;;;;;32.10;15.02;;;;;;;4.36;100.00;101906.78;5184402;28;20337;-79
2023/12/15 03:54:11;;;;;;;32.45;15.80;;;;;;;4.41;100.00;101911.16;5186923;28;20048;-78
2023/12/15 03:56:41;;;;;;;34.85;15.60;;;;;;;4.38;100.00;101915.44;5190899;28;20048;-79
2023/12/15 03:59:11;;;;;;;30.35;14.73;;;;;;;4.36;100.00;101909.38;5190039;28;20057;-79
2023/12/15 04:01:42;;;;;;;32.60;16.17;;;;;;;4.39;100.00;101912.00;5186803;28;20021;-77
2023/12/15 04:04:12;;;;;;;31.65;15.52;;;;;;;4.45;100.00;101917.25;5169344;28;20029;-79
2023/12/15 04:06:43;;;;;;;31.85;14.13;;;;;;;4.43;100.00;101918.97;5188488;28;20092;-75
2023/12/15 04:09:13;;;;;;;33.15;14.57;;;;;;;4.51;100.00;101913.00;5165875;28;20041;-76
2023/12/15 04:11:43;;;;;;;31.58;15.20;;;;;;;4.49;100.00;101925.03;5183585;28;20033;-77
2023/12/15 04:14:15;;;;;;;29.08;14.13;;;;;;;4.47;100.00;101931.94;5186600;28;20018;-77
2023/12/15 04:16:45;;;;;;;33.42;14.95;;;;;;;4.48;100.00;101928.47;5188904;28;20029;-76
2023/12/15 04:19:15;;;;;;;33.25;15.10;;;;;;;4.38;100.00;101931.84;5186229;28;20502;-76
2023/12/15 04:21:46;;;;;;;31.83;14.10;;;;;;;4.39;100.00;101927.53;5186276;28;20033;-76
2023/12/15 04:24:16;;;;;;;32.42;14.98;;;;;;;4.42;100.00;101928.44;5187423;28;20018;-75
2023/12/15 04:26:46;;;;;;;32.42;15.75;;;;;;;4.38;100.00;101937.00;5185290;28;20065;-76
2023/12/15 04:29:17;;;;;;;35.13;15.43;;;;;;;4.49;100.00;101924.19;5183659;28;20436;-76
2023/12/15 04:31:47;;;;;;;33.58;14.63;;;;;;;4.52;100.00;101925.09;5187040;28;20483;-74
2023/12/15 04:34:17;;;;;;;30.30;13.98;;;;;;;4.52;100.00;101924.22;5186323;28;20022;-73
2023/12/15 04:36:48;;;;;;;29.17;13.93;;;;;;;4.58;100.00;101922.56;5188690;28;20037;-75
2023/12/15 04:39:18;;;;;;;30.35;14.32;;;;;;;4.50;100.00;101929.34;5181366;28;20028;-73
2023/12/15 04:41:48;;;;;;;34.10;15.05;;;;;;;4.45;100.00;101928.44;5187341;28;20052;-74
2023/12/15 04:44:19;;;;;;;33.63;14.85;;;;;;;4.42;100.00;101925.84;5180344;28;20033;-73
2023/12/15 04:46:50;;;;;;;28.73;14.18;;;;;;;4.58;100.00;101924.25;5184352;28;20065;-75
2023/12/15 04:49:20;;;;;;;33.95;15.35;;;;;;;4.48;100.00;101923.31;5177296;28;20033;-74
2023/12/15 04:51:50;;;;;;;31.50;14.50;;;;;;;4.47;100.00;101937.09;5185955;28;20487;-76
2023/12/15 04:54:21;;;;;;;30.52;13.43;;;;;;;4.50;100.00;101929.34;5166850;28;20021;-74
2023/12/15 04:56:51;;;;;;;32.63;14.55;;;;;;;4.50;100.00;101937.13;5186102;28;20044;-75
2023/12/15 04:59:22;;;;;;;42.97;19.75;;;;;;;4.59;100.00;101933.75;5185048;28;20033;-75
2023/12/15 05:01:52;;;;;;;31.15;15.27;;;;;;;4.56;100.00;101939.81;5184712;28;20083;-76
2023/12/15 05:04:22;;;;;;;31.95;14.85;;;;;;;4.55;100.00;101940.66;5184057;28;20438;-75
2023/12/15 05:06:53;;;;;;;32.03;14.82;;;;;;;4.58;100.00;101947.56;5187557;28;20033;-76
2023/12/15 05:09:23;;;;;;;30.70;14.65;;;;;;;4.56;100.00;101938.91;5186454;28;20052;-76
2023/12/15 05:11:54;;;;;;;34.42;14.45;;;;;;;4.54;100.00;101944.09;5186997;28;20083;-76
2023/12/15 05:14:24;;;;;;;32.47;14.30;;;;;;;4.56;100.00;101932.03;5169031;28;20022;-73
2023/12/15 05:16:54;;;;;;;28.13;13.05;;;;;;;4.63;100.00;101944.19;5188653;28;20188;-76
2023/12/15 05:19:25;;;;;;;29.85;13.82;;;;;;;4.59;100.00;101951.88;5183075;28;20079;-75
2023/12/15 05:21:55;;;;;;;30.27;13.73;;;;;;;4.63;100.00;101957.13;5185985;28;20042;-76
2023/12/15 05:24:25;;;;;;;32.38;14.38;;;;;;;4.62;100.00;101955.38;5186154;28;20018;-76
2023/12/15 05:26:56;;;;;;;28.83;14.35;;;;;;;4.75;100.00;101957.25;5186817;28;20037;-77
2023/12/15 05:29:26;;;;;;;31.15;14.25;;;;;;;4.74;100.00;101947.75;5183603;28;20076;-77
2023/12/15 05:31:56;;;;;;;33.67;15.00;;;;;;;4.70;100.00;101951.19;5187653;28;20368;-77
2023/12/15 05:34:27;;;;;;;28.42;13.57;;;;;;;4.68;100.00;101958.06;5168876;28;20022;-77
2023/12/15 05:36:57;;;;;;;32.17;14.52;;;;;;;4.74;100.00;101963.28;5187331;28;20113;-77
2023/12/15 05:39:27;;;;;;;33.15;15.23;;;;;;;4.66;100.00;101964.91;5186354;28;20026;-77
2023/12/15 05:41:58;;;;;;;30.92;14.48;;;;;;;4.66;100.00;101972.69;5184007;28;20487;-77
2023/12/15 05:44:28;;;;;;;30.33;13.93;;;;;;;4.68;100.00;101975.28;5183478;28;20022;-77
2023/12/15 05:46:58;;;;;;;31.08;14.57;;;;;;;4.59;100.00;101976.06;5187750;28;20157;-77
2023/12/15 05:49:28;;;;;;;33.22;15.23;;;;;;;4.57;100.00;101980.38;5168905;28;20060;-77
2023/12/15 05:51:59;;;;;;;33.13;14.40;;;;;;;4.67;100.00;101986.50;5188884;28;20529;-77
2023/12/15 05:54:29;;;;;;;32.92;13.77;;;;;;;4.64;100.00;101982.16;5180750;28;20518;-76
2023/12/15 05:57:00;;;;;;;37.38;15.43;;;;;;;4.64;100.00;101987.34;5186377;28;20461;-76
2023/12/15 05:59:30;;;;;;;33.03;14.98;;;;;;;4.63;100.00;101989.94;5180828;28;20033;-77
2023/12/15 06:02:00;;;;;;;33.50;14.20;;;;;;;4.65;100.00;101996.84;5164678;28;20068;-77
2023/12/15 06:04:30;;;;;;;31.35;13.32;;;;;;;4.69;100.00;101996.03;5184390;28;20199;-77
2023/12/15 06:07:01;;;;;;;29.55;14.05;;;;;;;4.70;100.00;102000.38;5185104;28;20217;-77
2023/12/15 06:09:31;;;;;;;31.17;13.85;;;;;;;4.69;100.00;102001.22;5163892;28;20047;-77
2023/12/15 06:12:02;;;;;;;36.33;15.57;;;;;;;4.63;100.00;101997.69;5167693;28;20021;-77
2023/12/15 06:14:33;;;;;;;33.95;14.93;;;;;;;4.66;100.00;101990.81;5187214;28;20479;-77
2023/12/15 06:17:06;;;;;;;33.03;14.65;;;;;;;4.76;100.00;101999.53;5185554;28;20021;-75
2023/12/15 06:19:42;;;;;;;35.03;15.23;;;;;;;4.71;100.00;101998.63;5182652;28;20383;-77
2023/12/15 06:22:12;;;;;;;34.20;15.40;;;;;;;4.70;100.00;101995.19;5181085;28;20030;-77
2023/12/15 06:24:43;;;;;;;38.00;15.63;;;;;;;4.67;100.00;101992.53;5181144;28;20064;-76
2023/12/15 06:27:13;;;;;;;33.42;14.38;;;;;;;4.70;100.00;102002.97;5180886;28;20056;-77
2023/12/15 06:29:43;;;;;;;36.03;14.82;;;;;;;4.72;100.00;102006.44;5165700;28;20039;-77
2023/12/15 06:32:15;;;;;;;33.95;14.27;;;;;;;4.89;100.00;102004.88;5184094;28;20038;-77
2023/12/15 06:34:46;;;;;;;37.65;15.07;;;;;;;4.82;100.00;102013.41;5185846;28;20107;-76
2023/12/15 06:37:16;;;;;;;38.25;15.75;;;;;;;4.82;100.00;102007.38;5187953;28;20089;-76
2023/12/15 06:39:47;;;;;;;35.38;14.88;;;;;;;4.87;100.00;102006.59;5184136;28;20044;-76
2023/12/15 06:42:17;;;;;;;32.35;14.20;;;;;;;4.90;100.00;102010.91;5169451;28;20029;-76
2023/12/15 06:44:47;;;;;;;39.80;15.32;;;;;;;4.96;100.00;102011.00;5179855;28;20541;-76
2023/12/15 06:47:18;;;;;;;34.83;14.93;;;;;;;4.89;100.00;102009.19;5183384;28;20026;-76
2023/12/15 06:49:48;;;;;;;35.53;14.75;;;;;;;5.01;100.00;102012.75;5163987;28;20087;-76
2023/12/15 06:52:18;;;;;;;34.22;14.55;;;;;;;4.93;100.00;102014.41;5183240;28;20471;-76
2023/12/15 06:54:49;;;;;;;35.60;13.88;;;;;;;5.03;100.00;102023.16;5188758;28;20216;-77
2023/12/15 06:57:19;;;;;;;33.47;14.63;;;;;;;4.97;100.00;102018.75;5168675;28;20302;-76
2023/12/15 06:59:49;;;;;;;35.28;14.93;;;;;;;4.90;100.00;102024.75;5185048;28;20041;-74
2023/12/15 07:02:20;;;;;;;33.35;14.43;;;;;;;4.82;100.00;102028.09;5181791;28;20022;-77
2023/12/15 07:04:50;;;;;;;37.88;16.13;;;;;;;4.79;100.00;102028.94;5183688;28;20041;-73
2023/12/15 07:07:21;;;;;;;33.47;14.95;;;;;;;4.78;100.00;102024.59;5184785;28;20052;-77
2023/12/15 07:09:52;;;;;;;32.20;14.25;;;;;;;4.79;100.00;102028.09;5187401;28;20041;-74
2023/12/15 07:12:22;;;;;;;34.30;13.77;;;;;;;4.81;100.00;102032.41;5168722;28;20104;-76
2023/12/15 07:14:52;;;;;;;36.75;14.45;;;;;;;4.90;100.00;102031.63;5185227;28;20626;-76
2023/12/15 07:17:23;;;;;;;36.25;15.15;;;;;;;4.88;100.00;102029.06;5170688;28;20026;-77
2023/12/15 07:19:53;;;;;;;42.67;15.68;;;;;;;4.85;100.00;102036.78;5186434;28;20044;-77
2023/12/15 07:22:23;;;;;;;35.85;14.95;;;;;;;4.85;100.00;102041.97;5185212;28;20372;-76
2023/12/15 07:24:54;;;;;;;45.83;16.48;;;;;;;4.85;100.00;102047.16;5182237;28;20518;-76
2023/12/15 07:27:24;;;;;;;39.03;15.90;;;;;;;4.85;100.00;102039.38;5186199;28;20029;-73
2023/12/15 07:29:54;;;;;;;38.63;16.17;;;;;;;4.83;100.00;102040.22;5187600;28;20042;-76
2023/12/15 07:32:25;;;;;;;39.80;16.02;;;;;;;4.86;100.00;102050.59;5184247;28;20029;-76
2023/12/15 07:34:56;;;;;;;43.63;16.00;;;;;;;4.87;100.00;102041.97;5189197;28;20045;-77
2023/12/15 07:37:26;;;;;;;37.45;16.38;;;;;;;4.90;100.00;102050.66;5184755;28;20471;-76
2023/12/15 07:39:56;;;;;;;39.28;15.30;;;;;;;4.96;100.00;102058.47;5179687;28;20502;-76
2023/12/15 07:42:28;;;;;;;41.58;16.08;;;;;;;4.99;100.00;102061.09;5171491;28;20026;-76
2023/12/15 07:44:59;;;;;;;43.50;17.83;;;;;;;5.08;100.00;102058.63;5190232;28;20475;-77
2023/12/15 07:47:29;;;;;;;49.45;18.55;;;;;;;5.06;100.00;102056.84;5191357;28;20065;-77
2023/12/15 07:49:59;;;;;;;44.10;17.00;;;;;;;5.06;100.00;102059.44;5172934;28;20048;-76
2023/12/15 07:52:29;;;;;;;42.40;16.38;;;;;;;5.07;100.00;102062.06;5190385;28;20022;-76
2023/12/15 07:55:00;;;;;;;38.38;15.15;;;;;;;5.09;100.00;102055.16;5189355;28;20084;-74
2023/12/15 07:57:32;;;;;;;41.80;15.20;;;;;;;5.15;100.00;102060.41;5189022;28;20034;-74
2023/12/15 08:00:05;;;;;;;37.40;14.65;;;;;;;5.14;100.00;102068.19;5188662;28;20095;-76
2023/12/15 08:02:36;;;;;;;41.45;16.42;;;;;;;5.19;100.00;102075.13;5172003;28;20479;-76
2023/12/15 08:05:06;;;;;;;41.83;14.63;;;;;;;5.19;100.00;102082.03;5189294;28;20048;-77
2023/12/15 08:07:36;;;;;;;35.65;15.13;;;;;;;5.12;100.00;102082.84;5190821;28;20025;-76
2023/12/15 08:10:07;;;;;;;34.95;14.35;;;;;;;5.15;100.00;102085.47;5187260;28;20041;-76
2023/12/15 08:12:37;;;;;;;36.92;15.05;;;;;;;5.23;100.00;102083.81;5189490;28;20529;-77
2023/12/15 08:15:08;;;;;;;39.40;15.25;;;;;;;5.29;100.00;102084.72;5171699;28;20048;-77
2023/12/15 08:17:38;;;;;;;36.72;14.25;;;;;;;5.30;100.00;102081.28;5192264;28;20025;-77
2023/12/15 08:20:09;;;;;;;35.17;14.90;;;;;;;5.36;100.00;102083.94;5173425;28;20022;-77
2023/12/15 08:22:39;;;;;;;42.20;14.45;;;;;;;5.35;100.00;102083.94;5193501;28;20107;-77
2023/12/15 08:25:10;;;;;;;33.13;13.52;;;;;;;5.37;100.00;102088.28;5189325;28;20602;-77
2023/12/15 08:27:41;;;;;;;34.88;14.73;;;;;;;5.44;100.00;102095.25;5191447;28;20034;-77
2023/12/15 08:30:12;;;;;;;36.42;14.88;;;;;;;5.52;100.00;102101.38;5185043;28;20092;-76
2023/12/15 08:32:42;;;;;;;37.20;14.00;;;;;;;5.49;100.00;102106.53;5184116;28;20017;-73
2023/12/15 08:35:12;;;;;;;31.90;13.80;;;;;;;5.65;100.00;102105.81;5188329;28;20357;-75
2023/12/15 08:37:42;;;;;;;36.10;14.20;;;;;;;5.55;100.00;102109.19;5190029;28;20040;-73
2023/12/15 08:40:13;;;;;;;30.15;13.52;;;;;;;5.55;100.00;102111.78;5171144;28;20033;-77
2023/12/15 08:42:43;;;;;;;30.48;12.88;;;;;;;5.49;100.00;102117.78;5192127;28;20494;-73
2023/12/15 08:45:13;;;;;;;35.00;13.68;;;;;;;5.55;100.00;102119.56;5188592;28;20061;-76
2023/12/15 08:47:44;;;;;;;30.60;13.10;;;;;;;5.64;100.00;102119.63;5190752;28;20065;-74
2023/12/15 08:50:15;;;;;;;28.90;12.43;;;;;;;5.70;100.00;102124.88;5173068;28;20622;-77
2023/12/15 08:52:45;;;;;;;30.15;12.45;;;;;;;5.75;100.00;102131.00;5190000;28;20025;-74
2023/12/15 08:55:15;;;;;;;28.58;12.23;;;;;;;5.74;100.00;102134.44;5186621;28;20048;-76
2023/12/15 08:57:45;;;;;;;28.55;12.00;;;;;;;5.80;100.00;102129.31;5187694;28;20484;-76
2023/12/15 09:00:16;;;;;;;30.23;11.85;;;;;;;5.75;100.00;102136.19;5187221;28;20032;-77
2023/12/15 09:02:46;;;;;;;25.45;11.70;;;;;;;5.85;100.00;102140.59;5185865;28;20040;-75
2023/12/15 09:05:19;;;;;;;22.70;10.80;;;;;;;5.94;100.00;102145.88;5188238;28;20072;-77
2023/12/15 09:07:51;;;;;;;25.58;11.50;;;;;;;5.94;100.00;102151.94;5189315;28;20041;-76
2023/12/15 09:10:22;;;;;;;22.02;10.77;;;;;;;5.95;100.00;102152.81;5186798;28;20026;-77
2023/12/15 09:12:53;;;;;;;27.33;11.40;;;;;;;5.98;100.00;102153.72;5189383;28;20033;-75
2023/12/15 09:15:23;;;;;;;27.10;11.63;;;;;;;5.93;100.00;102159.72;5190181;28;20029;-77
2023/12/15 09:17:53;;;;;;;26.25;11.65;;;;;;;5.95;100.00;102160.59;5190409;28;20589;-75
2023/12/15 09:20:24;;;;;;;27.42;12.27;;;;;;;6.08;100.00;102176.25;5188143;28;20080;-73
2023/12/15 09:22:55;;;;;;;28.15;12.50;;;;;;;6.17;100.00;102188.44;5186668;28;20503;-76
2023/12/15 09:25:25;;;;;;;31.67;12.68;;;;;;;6.21;100.00;102182.41;5171731;28;20033;-76
2023/12/15 09:27:55;;;;;;;31.42;13.13;;;;;;;6.22;100.00;102189.38;5185613;28;20372;-76
2023/12/15 09:30:26;;;;;;;31.58;11.68;;;;;;;6.49;100.00;102182.66;5188742;28;20025;-77
2023/12/15 09:32:56;;;;;;;26.35;11.95;;;;;;;6.52;100.00;102189.56;5189839;28;20499;-76
2023/12/15 09:35:26;;;;;;;28.63;12.63;;;;;;;6.62;100.00;102189.63;5187923;28;20026;-77
2023/12/15 09:37:57;;;;;;;30.42;12.93;;;;;;;6.70;100.00;102192.28;5189111;28;20033;-77
2023/12/15 09:40:29;;;;;;;26.50;12.60;;;;;;;6.84;100.00;102195.84;5187816;28;20053;-76
2023/12/15 09:43:00;;;;;;;27.02;12.80;;;;;;;6.82;100.00;102205.34;5171118;28;20302;-77
2023/12/15 09:45:30;;;;;;;29.08;12.10;;;;;;;7.11;100.00;102199.44;5181037;28;20046;-77
2023/12/15 09:48:04;;;;;;;24.75;11.85;;;;;;;7.19;100.00;102207.28;5186603;28;20122;-77
2023/12/15 09:50:38;;;;;;;28.30;12.73;;;;;;;7.22;100.00;102207.28;5186689;28;20044;-77
2023/12/15 09:53:08;;;;;;;24.05;11.63;;;;;;;7.19;100.00;102218.56;5185616;28;20030;-77
2023/12/15 09:55:39;;;;;;;25.30;11.95;;;;;;;7.11;100.00;102216.78;5181538;28;20036;-77
2023/12/15 09:58:10;;;;;;;27.42;12.95;;;;;;;7.18;100.00;102210.72;5184116;28;20033;-77
2023/12/15 10:00:41;;;;;;;25.95;12.10;;;;;;;7.19;100.00;102222.88;5164800;28;20026;-77
2023/12/15 10:03:14;;;;;;;25.08;11.88;;;;;;;7.16;100.00;102222.88;5182302;28;20149;-77
2023/12/15 10:05:45;;;;;;;22.85;11.57;;;;;;;7.12;100.00;102227.16;5164079;28;20033;-76
2023/12/15 10:08:15;;;;;;;23.48;12.10;;;;;;;7.30;100.00;102237.66;5182795;28;20033;-77
2023/12/15 10:10:45;;;;;;;28.55;12.75;;;;;;;7.48;100.00;102238.59;5180984;28;20054;-76
2023/12/15 10:13:17;;;;;;;23.15;11.52;;;;;;;7.46;100.00;102244.66;5181555;28;20117;-77
2023/12/15 10:15:53;;;;;;;35.20;14.68;;;;;;;7.41;100.00;102238.56;5184336;28;20057;-77
2023/12/15 10:18:23;;;;;;;32.92;14.65;;;;;;;7.32;100.00;102247.22;5182437;28;20026;-77
2023/12/15 10:20:54;;;;;;;31.05;12.82;;;;;;;7.22;100.00;102254.09;5182599;28;20026;-75
2023/12/15 10:23:27;;;;;;;27.33;12.90;;;;;;;7.28;100.00;102261.94;5180968;28;20018;-75
2023/12/15 10:26:06;;;;;;;29.52;13.50;;;;;;;7.20;100.00;102261.00;5184162;28;20164;-77
2023/12/15 10:28:38;;;;;;;23.60;11.32;;;;;;;7.25;100.00;102259.31;5180304;28;20124;-76
2023/12/15 10:31:08;;;;;;;25.65;11.50;;;;;;;7.19;100.00;102261.88;5165385;28;20021;-76
2023/12/15 10:33:41;;;;;;;31.02;12.43;;;;;;;7.10;100.00;102262.69;5165214;28;20513;-77
2023/12/15 10:36:12;;;;;;;30.90;11.48;;;;;;;7.11;100.00;102260.97;5180858;28;20028;-77
2023/12/15 10:38:43;;;;;;;23.95;11.10;;;;;;;7.18;100.00;102263.63;5181203;28;20076;-79
2023/12/15 10:41:14;;;;;;;26.52;11.52;;;;;;;7.18;100.00;102265.34;5187165;28;20037;-78
2023/12/15 10:43:45;;;;;;;27.90;12.43;;;;;;;7.20;100.00;102267.09;5166555;28;20432;-79
2023/12/15 10:46:20;;;;;;;34.38;12.35;;;;;;;7.33;100.00;102261.94;5165416;28;20029;-75
2023/12/15 10:48:52;;;;;;;24.08;10.60;;;;;;;7.39;100.00;102258.50;5182656;28;20399;-79
2023/12/15 10:51:24;;;;;;;24.13;10.63;;;;;;;7.32;100.00;102247.22;5182428;28;20423;-79
2023/12/15 10:53:56;;;;;;;30.60;11.13;;;;;;;7.37;100.00;102258.50;5186968;28;20029;-75
2023/12/15 10:56:26;;;;;;;27.10;11.15;;;;;;;7.32;100.00;102260.22;5188748;28;20024;-78
2023/12/15 10:58:59;;;;;;;27.30;11.10;;;;;;;7.34;100.00;102266.28;5169602;28;20022;-78
2023/12/15 11:01:33;;;;;;;32.72;11.98;;;;;;;7.16;100.00;102254.06;5165628;28;20030;-79
2023/12/15 11:04:17;;;;;;;29.90;11.52;;;;;;;7.16;100.00;102270.53;5166063;28;20021;-78
2023/12/15 11:06:49;;;;;;;28.38;12.63;;;;;;;7.22;100.00;102276.63;5170645;28;20041;-79
2023/12/15 11:09:32;;;;;;;28.70;12.20;;;;;;;7.28;100.00;102272.34;5168198;28;20032;-78
2023/12/15 11:12:27;;;;;;;27.98;12.20;;;;;;;7.22;100.00;102269.69;5187048;28;20129;-77
2023/12/15 11:15:06;;;;;;;35.00;12.55;;;;;;;7.22;100.00;102278.38;5187650;28;20487;-78
2023/12/15 11:17:40;;;;;;;31.98;12.70;;;;;;;7.24;100.00;102273.19;5187322;28;20034;-79
2023/12/15 11:20:11;;;;;;;28.10;12.48;;;;;;;7.13;100.00;102272.25;5185349;28;20270;-79
2023/12/15 11:22:57;;;;;;;35.65;12.45;;;;;;;7.30;100.00;102274.06;5185220;28;20084;-79
2023/12/15 11:25:33;;;;;;;38.15;14.05;;;;;;;7.28;100.00;102275.78;5181660;28;20380;-79